Time;durP1;ratioP1;P1;durP2;ratioP2;P2;SDS_P1;SDS_P2;PMS_P1;PMS_P2;Temp;Humidity;BMP_temperature;BMP_pressure;BME280_temperature;BME280_humidity;BME280_pressure;Samples;Min_cycle;Max_cycle;Signal;HPM_P1;HPM_P2
2021/04/11 00:00:35;;;;;;;53.80;32.30;;;6.40;99.90;;;;;;5071757;28;20503;-43
2021/04/11 00:03:01;;;;;;;52.60;32.90;;;6.40;99.90;;;;;;5071799;28;20132;-43
2021/04/11 00:05:31;;;;;;;56.03;33.63;;;6.40;99.90;;;;;;5071895;28;20029;-42
2021/04/11 00:08:00;;;;;;;50.63;31.40;;;6.40;99.90;;;;;;5071730;28;20039;-40
2021/04/11 00:10:30;;;;;;;49.67;31.50;;;6.40;99.90;;;;;;5071629;28;20040;-40
2021/04/11 00:12:57;;;;;;;48.13;30.63;;;6.30;99.90;;;;;;5070422;28;20044;-42
2021/04/11 00:15:24;;;;;;;44.70;28.52;;;6.30;99.90;;;;;;5071545;28;20029;-40
2021/04/11 00:17:49;;;;;;;53.90;32.90;;;6.30;99.90;;;;;;5071570;28;20073;-41
2021/04/11 00:20:15;;;;;;;47.55;29.67;;;6.30;99.90;;;;;;5071488;28;20108;-40
2021/04/11 00:22:41;;;;;;;38.55;25.00;;;6.30;99.90;;;;;;5071526;28;20112;-40
2021/04/11 00:25:09;;;;;;;58.25;36.47;;;6.40;99.90;;;;;;5071148;28;20039;-40
2021/04/11 00:27:35;;;;;;;45.90;30.98;;;6.30;99.90;;;;;;5070514;28;20592;-41
2021/04/11 00:30:00;;;;;;;58.95;35.90;;;6.40;99.90;;;;;;5071319;28;20051;-45
2021/04/11 00:32:26;;;;;;;58.08;35.90;;;6.40;99.90;;;;;;5071052;28;20024;-42
2021/04/11 00:34:52;;;;;;;49.85;30.10;;;6.30;99.90;;;;;;5071256;28;20029;-43
2021/04/11 00:37:17;;;;;;;49.55;28.65;;;6.30;99.90;;;;;;5077206;28;20065;-40
2021/04/11 00:39:43;;;;;;;44.22;25.83;;;6.30;99.90;;;;;;5091247;28;20020;-42
2021/04/11 00:42:16;;;;;;;40.60;24.30;;;6.40;99.90;;;;;;5089595;28;20030;-43
2021/04/11 00:44:41;;;;;;;34.60;20.65;;;6.40;99.90;;;;;;5091184;28;20077;-41
2021/04/11 00:47:07;;;;;;;34.38;21.08;;;6.40;99.90;;;;;;5090321;28;20032;-43
2021/04/11 00:49:46;;;;;;;37.80;22.60;;;6.40;99.90;;;;;;5091293;28;20081;-41
2021/04/11 00:52:14;;;;;;;48.83;28.88;;;6.50;99.90;;;;;;5075047;28;20031;-42
2021/04/11 00:54:40;;;;;;;34.25;21.05;;;6.50;99.90;;;;;;5070740;28;20017;-43
2021/04/11 00:57:07;;;;;;;42.17;26.67;;;6.50;99.90;;;;;;5070723;28;20049;-41
2021/04/11 00:59:33;;;;;;;41.88;24.33;;;6.50;99.90;;;;;;5070153;28;20108;-41
2021/04/11 01:01:59;;;;;;;44.67;26.65;;;6.40;99.90;;;;;;5070634;28;20107;-42
2021/04/11 01:04:25;;;;;;;45.00;26.65;;;6.40;99.90;;;;;;5070879;28;20041;-41
2021/04/11 01:06:57;;;;;;;54.30;31.50;;;6.40;99.90;;;;;;5070898;28;20028;-41
2021/04/11 01:09:36;;;;;;;41.53;24.50;;;6.50;99.90;;;;;;5070639;28;20438;-42
2021/04/11 01:12:07;;;;;;;58.38;35.15;;;6.50;99.90;;;;;;5070553;28;20039;-42
2021/04/11 01:14:33;;;;;;;50.33;32.53;;;6.50;99.90;;;;;;5068603;28;20024;-43
2021/04/11 01:17:00;;;;;;;44.35;28.33;;;6.40;99.90;;;;;;5070623;28;20027;-42
2021/04/11 01:19:33;;;;;;;44.05;27.65;;;6.40;99.90;;;;;;5070582;28;20062;-40
2021/04/11 01:22:29;;;;;;;58.83;36.00;;;6.40;99.90;;;;;;5070494;28;20468;-44
2021/04/11 01:24:57;;;;;;;58.90;37.03;;;6.40;99.90;;;;;;5070764;28;20063;-44
2021/04/11 01:27:35;;;;;;;77.72;45.67;;;6.40;99.90;;;;;;5069494;28;20047;-40
2021/04/11 01:30:08;;;;;;;65.35;39.25;;;6.40;99.90;;;;;;5070655;28;20067;-41
2021/04/11 01:32:34;;;;;;;59.85;34.45;;;6.40;99.90;;;;;;5069384;28;20062;-44
2021/04/11 01:34:59;;;;;;;72.65;43.72;;;6.40;99.90;;;;;;5069656;28;20032;-43
2021/04/11 01:37:27;;;;;;;60.80;35.83;;;6.40;99.90;;;;;;5052225;28;20029;-43
2021/04/11 01:39:53;;;;;;;66.25;41.55;;;6.40;99.90;;;;;;5052414;28;20061;-40
2021/04/11 01:42:20;;;;;;;64.65;37.92;;;6.40;99.90;;;;;;5050948;28;20098;-40
2021/04/11 01:44:49;;;;;;;69.28;41.30;;;6.40;99.90;;;;;;5052307;28;20041;-42
2021/04/11 01:47:15;;;;;;;64.97;40.65;;;6.40;99.90;;;;;;5052051;28;20429;-41
2021/04/11 01:49:42;;;;;;;70.43;40.45;;;6.40;99.90;;;;;;5052365;28;20363;-42
2021/04/11 01:52:15;;;;;;;89.45;51.90;;;6.40;99.90;;;;;;5067367;28;20032;-41
2021/04/11 01:54:41;;;;;;;76.13;44.75;;;6.40;99.90;;;;;;5072249;28;20103;-40
2021/04/11 01:57:16;;;;;;;70.78;42.05;;;6.40;99.90;;;;;;5072311;28;20471;-43
2021/04/11 01:59:41;;;;;;;79.13;45.85;;;6.40;99.90;;;;;;5076177;28;20024;-40
2021/04/11 02:02:07;;;;;;;88.30;49.05;;;6.40;99.90;;;;;;5075832;28;20356;-41
2021/04/11 02:04:33;;;;;;;83.82;45.25;;;6.40;99.90;;;;;;5075794;28;20024;-43
2021/04/11 02:07:01;;;;;;;88.25;51.72;;;6.40;99.90;;;;;;5075801;28;20040;-41
2021/04/11 02:09:33;;;;;;;81.53;48.22;;;6.40;99.90;;;;;;5075832;28;20104;-40
2021/04/11 02:12:00;;;;;;;81.90;48.35;;;6.40;99.90;;;;;;5075356;28;20028;-42
2021/04/11 02:14:27;;;;;;;101.75;56.60;;;6.30;99.90;;;;;;5074817;28;20036;-42
2021/04/11 02:16:55;;;;;;;103.30;55.25;;;6.40;99.90;;;;;;5075643;28;20058;-41
2021/04/11 02:19:23;;;;;;;82.97;47.92;;;6.40;99.90;;;;;;5074882;28;20075;-43
2021/04/11 02:22:12;;;;;;;96.57;52.15;;;6.30;99.90;;;;;;5075477;28;20058;-42
2021/04/11 02:24:40;;;;;;;93.45;51.38;;;6.30;99.90;;;;;;5055467;28;20067;-44
2021/04/11 02:27:06;;;;;;;88.30;49.50;;;6.30;99.90;;;;;;5055254;28;20102;-42
2021/04/11 02:29:34;;;;;;;113.82;62.03;;;6.30;99.90;;;;;;5054856;28;20028;-40
2021/04/11 02:32:00;;;;;;;110.72;60.17;;;6.30;99.90;;;;;;5055230;28;20353;-42
2021/04/11 02:34:31;;;;;;;86.65;49.17;;;6.30;99.90;;;;;;5055308;28;20017;-44
2021/04/11 02:37:05;;;;;;;105.40;58.35;;;6.30;99.90;;;;;;5055092;28;20067;-43
2021/04/11 02:39:35;;;;;;;104.90;56.47;;;6.30;99.90;;;;;;5055193;28;20025;-43
2021/04/11 02:42:06;;;;;;;99.50;54.08;;;6.40;99.90;;;;;;5053824;28;20036;-42
2021/04/11 02:44:36;;;;;;;112.47;61.03;;;6.40;99.90;;;;;;5054315;28;20033;-41
2021/04/11 02:47:04;;;;;;;83.32;48.90;;;6.40;99.90;;;;;;5055112;28;20033;-42
2021/04/11 02:49:29;;;;;;;97.68;56.38;;;6.40;99.90;;;;;;5054840;28;20033;-43
2021/04/11 02:51:58;;;;;;;99.25;55.97;;;6.40;99.90;;;;;;5068444;28;20035;-42
2021/04/11 02:54:25;;;;;;;101.03;58.05;;;6.40;99.90;;;;;;5075041;28;20024;-41
2021/04/11 02:56:50;;;;;;;110.63;61.10;;;6.40;99.90;;;;;;5074765;28;20064;-42
2021/04/11 02:59:18;;;;;;;103.65;60.58;;;6.40;99.90;;;;;;5073855;28;20089;-41
2021/04/11 03:01:46;;;;;;;106.10;60.40;;;6.40;99.90;;;;;;5074847;28;20023;-40
2021/04/11 03:04:18;;;;;;;127.22;68.57;;;6.40;99.90;;;;;;5074770;28;20040;-40
2021/04/11 03:06:49;;;;;;;111.55;62.55;;;6.40;99.90;;;;;;5074727;28;20047;-42
2021/04/11 03:09:24;;;;;;;117.90;65.47;;;6.40;99.90;;;;;;5072620;28;20342;-42
2021/04/11 03:11:52;;;;;;;116.15;63.08;;;6.40;99.90;;;;;;5074470;28;20056;-43
2021/04/11 03:14:20;;;;;;;108.70;60.78;;;6.40;99.90;;;;;;5073544;28;20021;-40
2021/04/11 03:16:47;;;;;;;94.47;53.63;;;6.40;99.90;;;;;;5074432;28;20025;-43
2021/04/11 03:19:18;;;;;;;114.05;64.15;;;6.40;99.90;;;;;;5074667;28;20096;-40
2021/04/11 03:21:44;;;;;;;105.95;57.65;;;6.40;99.90;;;;;;5074439;28;20602;-40
2021/04/11 03:24:10;;;;;;;120.90;66.90;;;6.40;99.90;;;;;;5074465;28;20100;-40
2021/04/11 03:26:44;;;;;;;113.55;63.38;;;6.40;99.90;;;;;;5074207;28;20025;-42
2021/04/11 03:29:18;;;;;;;108.00;57.30;;;6.40;99.90;;;;;;5073353;28;20013;-43
2021/04/11 03:31:58;;;;;;;109.65;60.38;;;6.40;99.90;;;;;;5074113;28;20029;-40
2021/04/11 03:34:25;;;;;;;94.28;52.60;;;6.40;99.90;;;;;;5074226;28;20070;-43
2021/04/11 03:36:52;;;;;;;102.43;57.40;;;6.40;99.90;;;;;;5074174;28;20047;-40
2021/04/11 03:39:20;;;;;;;128.25;68.00;;;6.40;99.90;;;;;;5074178;28;20028;-40
2021/04/11 03:41:47;;;;;;;102.70;56.70;;;6.40;99.90;;;;;;5073883;28;20186;-40
2021/04/11 03:44:21;;;;;;;108.82;59.92;;;6.40;99.90;;;;;;5073147;28;20513;-41
2021/04/11 03:47:01;;;;;;;114.13;63.03;;;6.40;99.90;;;;;;5073888;28;20024;-41
2021/04/11 03:49:48;;;;;;;103.45;58.10;;;6.40;99.90;;;;;;5073977;28;20028;-40
2021/04/11 03:52:19;;;;;;;;;;;6.40;99.90;;;;;;5073913;28;20039;-42
2021/04/11 03:54:45;;;;;;;94.35;52.92;;;6.40;99.90;;;;;;5073816;28;19908;-40
2021/04/11 03:57:20;;;;;;;102.05;57.13;;;6.40;99.90;;;;;;5072704;28;20384;-41
2021/04/11 03:59:56;;;;;;;99.07;55.58;;;6.40;99.90;;;;;;5073632;28;20476;-40
2021/04/11 04:02:25;;;;;;;103.93;57.47;;;6.40;99.90;;;;;;5072059;28;20039;-41
2021/04/11 04:04:52;;;;;;;104.35;58.63;;;6.40;99.90;;;;;;5073584;28;20021;-40
2021/04/11 04:07:22;;;;;;;88.45;51.65;;;6.40;99.90;;;;;;5073477;28;20056;-41
2021/04/11 04:10:00;;;;;;;112.72;61.45;;;6.40;99.90;;;;;;5073571;28;20083;-41
2021/04/11 04:12:43;;;;;;;112.80;60.55;;;6.40;99.90;;;;;;5072489;28;20025;-40
2021/04/11 04:15:13;;;;;;;113.85;65.68;;;6.40;99.90;;;;;;5071930;28;20149;-43
2021/04/11 04:17:59;;;;;;;98.28;58.97;;;6.40;99.90;;;;;;5073200;28;20021;-40
2021/04/11 04:20:46;;;;;;;89.28;56.03;;;6.40;99.90;;;;;;5073130;28;20020;-41
2021/04/11 04:23:20;;;;;;;117.10;64.18;;;6.40;99.90;;;;;;5073049;28;20031;-42
2021/04/11 04:26:15;;;;;;;107.88;62.70;;;6.40;99.90;;;;;;5073220;28;20028;-42
2021/04/11 04:28:58;;;;;;;107.50;62.38;;;6.40;99.90;;;;;;5072209;28;20020;-40
2021/04/11 04:32:01;;;;;;;110.90;61.50;;;6.40;99.90;;;;;;5072784;28;20084;-42
2021/04/11 04:34:43;;;;;;;106.18;59.42;;;6.30;99.90;;;;;;5072901;28;20475;-41
2021/04/11 04:37:11;;;;;;;127.20;70.93;;;6.30;99.90;;;;;;5072916;28;20063;-40
2021/04/11 04:40:06;;;;;;;99.00;55.85;;;6.30;99.90;;;;;;5072948;28;20037;-41
2021/04/11 04:42:47;;;;;;;99.38;57.92;;;6.30;99.90;;;;;;5071918;28;20031;-42
2021/04/11 04:45:28;;;;;;;104.82;61.05;;;6.40;99.90;;;;;;5072745;28;20017;-40
2021/04/11 04:48:12;;;;;;;108.90;64.25;;;6.40;99.90;;;;;;5072659;28;20043;-41
2021/04/11 04:51:13;;;;;;;102.28;59.92;;;6.40;99.90;;;;;;5072577;28;20099;-40
2021/04/11 04:53:52;;;;;;;89.78;53.75;;;6.40;99.90;;;;;;5072531;28;20029;-40
2021/04/11 04:56:22;;;;;;;100.80;60.17;;;6.40;99.90;;;;;;5072461;28;20074;-40
2021/04/11 04:59:04;;;;;;;113.25;63.50;;;6.40;99.90;;;;;;5071590;28;20032;-40
2021/04/11 05:01:48;;;;;;;90.75;52.95;;;6.40;99.90;;;;;;5072349;28;20048;-41
2021/04/11 05:04:22;;;;;;;101.72;59.08;;;6.50;99.90;;;;;;5072576;28;20025;-41
2021/04/11 05:06:54;;;;;;;88.55;49.80;;;6.50;99.90;;;;;;5068165;28;20054;-41
2021/04/11 05:09:46;;;;;;;88.13;51.50;;;6.50;99.90;;;;;;5070065;28;20034;-43
2021/04/11 05:12:38;;;;;;;90.85;55.00;;;6.50;99.90;;;;;;5075071;28;20070;-43
2021/04/11 05:15:11;;;;;;;93.63;56.25;;;6.50;99.90;;;;;;5061254;28;20515;-40
2021/04/11 05:17:42;;;;;;;77.30;49.58;;;6.50;99.90;;;;;;5090558;28;20016;-40
2021/04/11 05:20:08;;;;;;;91.28;53.72;;;6.50;99.90;;;;;;5090814;28;20052;-40
2021/04/11 05:22:45;;;;;;;79.00;46.70;;;6.50;99.90;;;;;;5085298;28;20549;-41
2021/04/11 05:25:18;;;;;;;71.47;40.78;;;6.50;99.90;;;;;;5064284;28;20016;-41
2021/04/11 05:28:19;;;;;;;72.07;43.83;;;6.60;99.90;;;;;;5089521;28;20438;-40
2021/04/11 05:30:50;;;;;;;89.28;50.72;;;6.60;99.90;;;;;;5008357;28;20052;-40
2021/04/11 05:33:22;;;;;;;76.95;45.78;;;6.60;99.90;;;;;;5079124;28;20051;-42
2021/04/11 05:35:59;;;;;;;84.20;51.00;;;6.60;99.90;;;;;;5095017;28;20252;-41
2021/04/11 05:38:49;;;;;;;79.93;46.13;;;6.70;99.90;;;;;;5094550;28;20036;-42
2021/04/11 05:41:23;;;;;;;72.85;43.78;;;6.70;99.90;;;;;;5086897;28;20507;-40
2021/04/11 05:43:57;;;;;;;71.32;41.85;;;6.80;99.90;;;;;;5073488;28;20032;-43
2021/04/11 05:47:03;;;;;;;72.65;40.15;;;6.80;99.90;;;;;;5074330;28;20035;-41
2021/04/11 05:49:42;;;;;;;58.08;35.05;;;6.90;99.90;;;;;;4992772;28;20037;-40
2021/04/11 05:52:12;;;;;;;58.05;36.92;;;6.90;99.90;;;;;;5062455;28;20044;-42
2021/04/11 05:54:42;;;;;;;61.67;36.53;;;6.90;99.90;;;;;;5074309;28;20024;-42
2021/04/11 05:57:13;;;;;;;59.25;37.17;;;7.00;99.90;;;;;;5073049;28;20140;-42
2021/04/11 05:59:49;;;;;;;67.88;41.20;;;7.00;99.90;;;;;;5074250;28;20028;-47
2021/04/11 06:02:36;;;;;;;62.67;36.72;;;7.10;99.90;;;;;;5074122;28;20036;-41
2021/04/11 06:05:20;;;;;;;68.55;39.08;;;7.20;99.90;;;;;;5074229;28;20147;-43
2021/04/11 06:07:51;;;;;;;67.43;39.50;;;7.20;99.90;;;;;;5073859;28;20479;-40
2021/04/11 06:10:23;;;;;;;61.88;37.55;;;7.30;99.90;;;;;;5074193;28;20391;-41
2021/04/11 06:13:07;;;;;;;61.88;38.05;;;7.40;99.90;;;;;;5072760;28;20024;-41
2021/04/11 06:15:46;;;;;;;71.05;43.80;;;7.50;99.90;;;;;;5065695;28;20411;-42
2021/04/11 06:18:13;;;;;;;59.97;36.00;;;7.60;99.90;;;;;;5061434;28;20021;-40
2021/04/11 06:20:39;;;;;;;56.15;36.65;;;7.70;99.90;;;;;;5073714;28;20020;-43
2021/04/11 06:23:25;;;;;;;65.18;40.85;;;7.90;99.90;;;;;;5073597;28;20033;-43
2021/04/11 06:26:20;;;;;;;54.20;35.38;;;8.20;99.90;;;;;;5073361;28;20058;-40
2021/04/11 06:29:00;;;;;;;54.50;35.63;;;8.30;99.90;;;;;;5092636;28;20560;-41
2021/04/11 06:31:38;;;;;;;65.07;43.38;;;8.30;99.90;;;;;;5091648;28;20043;-42
2021/04/11 06:34:16;;;;;;;68.68;42.15;;;8.50;99.90;;;;;;5079955;28;20028;-41
2021/04/11 06:36:44;;;;;;;61.88;39.80;;;8.60;99.90;;;;;;5093480;28;20458;-44
2021/04/11 06:39:17;;;;;;;67.55;44.45;;;8.70;99.90;;;;;;5093598;28;20072;-40
2021/04/11 06:42:03;;;;;;;64.05;40.00;;;8.80;99.90;;;;;;5078403;28;20029;-41
2021/04/11 06:45:07;;;;;;;59.72;38.58;;;9.00;99.90;;;;;;5071735;28;20494;-43
2021/04/11 06:47:57;;;;;;;64.50;39.85;;;9.10;99.90;;;;;;5073149;28;20482;-41
2021/04/11 06:50:35;;;;;;;62.67;40.60;;;9.30;99.90;;;;;;5072260;28;20020;-41
2021/04/11 06:53:28;;;;;;;64.35;43.42;;;9.80;99.90;;;;;;5072823;28;20082;-41
2021/04/11 06:56:21;;;;;;;64.85;39.88;;;10.50;99.90;;;;;;5072780;28;20715;-43
2021/04/11 06:58:56;;;;;;;56.75;36.35;;;11.40;99.90;;;;;;5072285;28;20024;-42
2021/04/11 07:01:40;;;;;;;53.72;37.03;;;12.80;99.90;;;;;;5073026;28;20492;-51
2021/04/11 07:04:27;;;;;;;56.83;35.85;;;14.20;97.10;;;;;;5072507;28;20036;-46
2021/04/11 07:07:05;;;;;;;48.85;33.55;;;14.60;92.40;;;;;;5073045;28;20024;-46
2021/04/11 07:09:42;;;;;;;42.40;29.63;;;15.50;91.10;;;;;;5072923;28;20035;-46
2021/04/11 07:12:42;;;;;;;42.20;29.63;;;15.40;85.30;;;;;;5071981;28;20074;-46
2021/04/11 07:15:29;;;;;;;47.15;31.63;;;15.90;85.40;;;;;;5067133;28;20048;-47
2021/04/11 07:18:29;;;;;;;44.60;32.17;;;17.00;80.30;;;;;;5064767;28;20024;-46
2021/04/11 07:21:13;;;;;;;38.30;27.42;;;17.50;75.40;;;;;;5074373;28;20020;-47
2021/04/11 07:24:16;;;;;;;46.17;32.25;;;16.70;77.90;;;;;;5074233;28;20025;-50
2021/04/11 07:27:12;;;;;;;40.03;27.60;;;16.40;76.30;;;;;;5074229;28;20041;-47
2021/04/11 07:30:02;;;;;;;39.33;28.20;;;15.70;74.40;;;;;;5071130;28;20387;-47
2021/04/11 07:33:00;;;;;;;41.15;28.73;;;15.80;74.30;;;;;;5074089;28;20036;-46
2021/04/11 07:35:48;;;;;;;46.70;31.30;;;15.20;75.20;;;;;;5073857;28;20044;-47
2021/04/11 07:38:33;;;;;;;38.30;27.27;;;14.80;75.80;;;;;;5073964;28;20021;-45
2021/04/11 07:41:22;;;;;;;36.28;23.60;;;15.10;77.80;;;;;;5073818;28;20368;-45
2021/04/11 07:44:29;;;;;;;41.45;28.75;;;14.80;79.20;;;;;;5072577;28;20036;-46
2021/04/11 07:47:03;;;;;;;42.90;29.85;;;14.60;78.40;;;;;;5073678;28;20067;-45
2021/04/11 07:50:06;;;;;;;45.22;30.65;;;14.70;77.10;;;;;;5073794;28;20525;-48
2021/04/11 07:52:57;;;;;;;32.85;25.55;;;15.10;75.30;;;;;;5001953;28;20038;-46
2021/04/11 07:55:54;;;;;;;41.28;29.15;;;14.80;78.40;;;;;;5073079;28;20086;-46
2021/04/11 07:58:29;;;;;;;34.25;24.45;;;14.60;77.30;;;;;;5072451;28;20466;-47
2021/04/11 08:01:18;;;;;;;39.88;26.55;;;14.90;79.30;;;;;;5073394;28;20029;-47
2021/04/11 08:04:12;;;;;;;43.50;26.48;;;15.10;76.60;;;;;;5073453;28;20044;-46
2021/04/11 08:07:01;;;;;;;36.95;26.23;;;15.10;76.20;;;;;;5093475;28;20379;-46
2021/04/11 08:10:00;;;;;;;42.45;28.88;;;14.70;77.10;;;;;;5093446;28;20043;-46
2021/04/11 08:12:37;;;;;;;38.75;25.02;;;14.50;78.50;;;;;;5092723;28;20020;-47
2021/04/11 08:15:13;;;;;;;36.92;24.27;;;14.30;78.90;;;;;;5092934;28;20042;-49
2021/04/11 08:17:53;;;;;;;32.38;22.42;;;14.40;79.70;;;;;;5092238;28;20076;-54
2021/04/11 08:20:37;;;;;;;29.02;19.00;;;14.80;79.90;;;;;;5093169;28;20034;-49
2021/04/11 08:23:18;;;;;;;37.95;25.63;;;15.00;78.10;;;;;;5093244;28;20024;-48
2021/04/11 08:26:20;;;;;;;26.92;19.50;;;15.30;77.40;;;;;;5093355;28;20028;-45
2021/04/11 08:29:13;;;;;;;37.00;24.45;;;15.60;77.60;;;;;;5092178;28;20055;-49
2021/04/11 08:32:09;;;;;;;34.28;24.45;;;16.40;72.90;;;;;;5092862;28;20035;-50
2021/04/11 08:34:55;;;;;;;28.00;19.10;;;16.30;72.90;;;;;;5093222;28;20103;-49
2021/04/11 08:37:24;;;;;;;34.40;22.35;;;16.10;73.60;;;;;;5093078;28;20024;-47
2021/04/11 08:40:30;;;;;;;30.00;20.27;;;16.00;74.00;;;;;;5092895;28;20102;-48
2021/04/11 08:43:20;;;;;;;27.05;18.02;;;16.70;72.40;;;;;;5060576;28;20040;-48
2021/04/11 08:46:14;;;;;;;28.83;18.50;;;17.10;72.10;;;;;;5093037;28;20068;-46
2021/04/11 08:48:46;;;;;;;21.20;15.80;;;17.20;71.90;;;;;;5092940;28;20027;-48
2021/04/11 08:51:27;;;;;;;25.02;16.27;;;17.40;71.20;;;;;;5085040;28;20032;-48
2021/04/11 08:54:22;;;;;;;21.73;15.00;;;17.40;70.90;;;;;;5072467;28;20025;-47
2021/04/11 08:56:58;;;;;;;24.73;16.40;;;18.80;69.10;;;;;;5072310;28;20041;-48
2021/04/11 08:59:41;;;;;;;21.60;14.45;;;19.90;69.30;;;;;;5072402;28;20024;-48
2021/04/11 09:02:29;;;;;;;24.60;16.60;;;21.00;63.50;;;;;;5072302;28;20045;-48
2021/04/11 09:05:26;;;;;;;25.10;17.70;;;21.90;63.20;;;;;;5072318;28;20044;-49
2021/04/11 09:08:13;;;;;;;18.48;14.60;;;22.30;57.50;;;;;;5075921;28;20059;-50
2021/04/11 09:11:15;;;;;;;18.38;14.00;;;22.40;57.50;;;;;;5092794;28;20020;-50
2021/04/11 09:13:58;;;;;;;17.60;13.23;;;22.80;56.40;;;;;;5091635;28;20360;-50
2021/04/11 09:16:47;;;;;;;17.58;12.18;;;22.40;54.70;;;;;;5092542;28;20024;-50
2021/04/11 09:19:26;;;;;;;15.73;11.77;;;22.70;56.20;;;;;;5092526;28;20031;-51
2021/04/11 09:22:11;;;;;;;19.52;11.82;;;23.20;56.60;;;;;;5092082;28;20055;-49
2021/04/11 09:24:55;;;;;;;15.10;11.15;;;23.30;55.20;;;;;;5092454;28;20088;-49
2021/04/11 09:27:46;;;;;;;13.82;9.45;;;23.50;52.40;;;;;;5091680;28;20028;-50
2021/04/11 09:30:38;;;;;;;18.10;10.45;;;24.00;52.30;;;;;;5092282;28;20398;-49
2021/04/11 09:33:09;;;;;;;20.52;10.85;;;24.10;49.20;;;;;;5092195;28;20479;-51
2021/04/11 09:35:46;;;;;;;22.45;15.02;;;23.90;51.70;;;;;;5092362;28;20024;-48
2021/04/11 09:38:48;;;;;;;16.50;10.25;;;23.80;50.60;;;;;;5092044;28;20028;-51
2021/04/11 09:41:51;;;;;;;16.27;10.73;;;24.00;50.90;;;;;;5092217;28;20017;-50
2021/04/11 09:44:45;;;;;;;13.07;8.88;;;24.00;48.50;;;;;;5091205;28;20114;-49
2021/04/11 09:47:30;;;;;;;16.88;10.68;;;24.00;50.00;;;;;;5092150;28;20024;-46
2021/04/11 09:50:05;;;;;;;11.75;7.97;;;24.30;49.60;;;;;;5092291;28;20024;-46
2021/04/11 09:53:10;;;;;;;13.77;9.38;;;24.40;50.40;;;;;;5073046;28;20737;-49
2021/04/11 09:56:13;;;;;;;12.90;9.90;;;24.30;48.20;;;;;;5071900;28;20116;-48
2021/04/11 09:59:04;;;;;;;16.10;9.80;;;23.70;47.80;;;;;;5071096;28;20090;-50
2021/04/11 10:02:10;;;;;;;14.70;9.35;;;23.30;50.20;;;;;;5071686;28;20103;-48
2021/04/11 10:05:01;;;;;;;18.48;9.43;;;23.30;49.90;;;;;;5071902;28;20059;-50
2021/04/11 10:08:00;;;;;;;16.40;9.65;;;23.30;49.30;;;;;;5072556;28;20099;-49
2021/04/11 10:10:46;;;;;;;13.82;9.10;;;22.70;50.10;;;;;;5092069;28;20028;-47
2021/04/11 10:13:29;;;;;;;11.87;7.40;;;22.20;51.50;;;;;;5090823;28;20032;-49
2021/04/11 10:16:21;;;;;;;12.85;8.70;;;21.80;52.90;;;;;;5091673;28;20103;-51
2021/04/11 10:18:49;;;;;;;10.25;7.75;;;21.60;52.20;;;;;;5093934;28;20110;-51
2021/04/11 10:21:21;;;;;;;14.25;9.07;;;21.40;52.30;;;;;;5095653;28;20028;-51
2021/04/11 10:24:20;;;;;;;10.02;6.50;;;21.10;53.30;;;;;;5095696;28;20038;-49
2021/04/11 10:26:51;;;;;;;9.55;6.45;;;21.00;54.10;;;;;;5095376;28;20251;-48
2021/04/11 10:29:22;;;;;;;8.05;5.28;;;21.00;54.40;;;;;;5094551;28;20634;-49
2021/04/11 10:32:12;;;;;;;11.85;7.65;;;21.00;54.70;;;;;;5095621;28;20111;-49
2021/04/11 10:34:46;;;;;;;16.05;8.80;;;20.90;53.80;;;;;;5091204;28;20032;-47
2021/04/11 10:37:32;;;;;;;11.23;6.78;;;20.70;54.60;;;;;;5068262;28;20047;-47
2021/04/11 10:40:22;;;;;;;9.70;5.85;;;20.60;54.80;;;;;;5082208;28;20013;-49
2021/04/11 10:42:58;;;;;;;10.00;6.63;;;20.70;55.40;;;;;;5072513;28;20115;-51
2021/04/11 10:45:45;;;;;;;11.43;7.43;;;20.70;55.10;;;;;;5073028;28;20028;-51
2021/04/11 10:48:48;;;;;;;13.18;6.90;;;20.60;53.80;;;;;;5073194;28;20032;-48
2021/04/11 10:51:35;;;;;;;11.68;6.80;;;20.50;54.50;;;;;;5073002;28;20029;-49
2021/04/11 10:54:22;;;;;;;10.25;6.43;;;20.40;54.70;;;;;;5081578;28;20028;-51
2021/04/11 10:57:27;;;;;;;13.88;7.07;;;20.20;54.90;;;;;;5072998;28;20385;-48
2021/04/11 11:00:28;;;;;;;12.02;6.20;;;20.20;54.20;;;;;;5035069;28;20044;-49
2021/04/11 11:03:15;;;;;;;8.93;5.35;;;20.00;55.40;;;;;;5072961;28;20495;-51
2021/04/11 11:06:22;;;;;;;10.15;6.30;;;20.00;55.80;;;;;;5072802;28;20044;-48
2021/04/11 11:09:17;;;;;;;9.38;4.75;;;20.00;56.00;;;;;;5081728;28;20115;-49
2021/04/11 11:12:01;;;;;;;9.15;5.03;;;20.10;56.40;;;;;;5061972;28;20035;-48
2021/04/11 11:15:02;;;;;;;8.32;5.20;;;20.00;56.30;;;;;;5072481;28;20104;-51
2021/04/11 11:17:46;;;;;;;10.38;6.13;;;20.00;56.30;;;;;;5072371;28;20736;-48
2021/04/11 11:20:36;;;;;;;10.05;5.68;;;20.10;55.60;;;;;;5072557;28;20350;-51
2021/04/11 11:23:23;;;;;;;10.48;5.70;;;20.00;54.40;;;;;;5072592;28;20025;-51
2021/04/11 11:26:17;;;;;;;9.95;6.13;;;19.80;55.20;;;;;;5072525;28;20382;-57
2021/04/11 11:29:36;;;;;;;9.10;4.80;;;19.80;55.00;;;;;;5071442;28;20035;-55
2021/04/11 11:32:46;;;;;;;9.30;5.28;;;19.80;56.20;;;;;;4988917;28;20556;-58
2021/04/11 11:35:15;;;;;;;9.75;4.13;;;19.90;55.40;;;;;;5062944;28;20040;-56
2021/04/11 11:38:28;;;;;;;9.52;5.03;;;19.90;55.50;;;;;;5080366;28;20026;-57
2021/04/11 11:41:14;;;;;;;8.65;4.50;;;20.00;55.10;;;;;;4990140;28;20502;-57
2021/04/11 11:44:06;;;;;;;11.13;5.25;;;20.00;54.90;;;;;;5052549;28;20060;-55
2021/04/11 11:46:56;;;;;;;7.93;4.97;;;20.10;55.40;;;;;;5072089;28;20040;-54
2021/04/11 11:49:37;;;;;;;7.80;4.72;;;20.10;54.50;;;;;;5072101;28;20099;-57
2021/04/11 11:52:20;;;;;;;8.13;5.20;;;20.10;55.00;;;;;;5071701;28;20029;-57
2021/04/11 11:55:00;;;;;;;10.13;4.25;;;20.10;53.90;;;;;;5071692;28;20028;-55
2021/04/11 11:57:42;;;;;;;9.25;6.10;;;20.10;54.60;;;;;;5070961;28;20321;-55
2021/04/11 12:00:19;;;;;;;8.43;4.90;;;20.20;54.40;;;;;;5071769;28;20016;-54
2021/04/11 12:03:22;;;;;;;6.35;4.13;;;20.10;53.90;;;;;;5071932;28;20033;-57
2021/04/11 12:06:08;;;;;;;5.80;3.60;;;20.10;55.30;;;;;;5071570;28;20031;-53
2021/04/11 12:08:55;;;;;;;5.57;4.22;;;20.10;54.80;;;;;;5071650;28;20383;-52
2021/04/11 12:11:54;;;;;;;9.55;5.38;;;20.10;54.60;;;;;;5076607;28;20884;-52
2021/04/11 12:14:48;;;;;;;7.30;4.63;;;20.10;54.10;;;;;;5091447;28;20038;-56
2021/04/11 12:17:41;;;;;;;7.53;3.90;;;20.00;54.50;;;;;;5091409;28;20044;-55
2021/04/11 12:20:31;;;;;;;11.10;5.47;;;20.00;55.30;;;;;;5091742;28;20038;-51
2021/04/11 12:23:22;;;;;;;6.82;3.80;;;20.00;54.20;;;;;;5091610;28;20115;-55
2021/04/11 12:25:49;;;;;;;5.78;4.10;;;20.00;55.00;;;;;;5091450;28;20066;-54
2021/04/11 12:28:17;;;;;;;5.35;3.90;;;20.10;54.90;;;;;;5088098;28;20393;-55
2021/04/11 12:30:44;;;;;;;5.93;3.80;;;20.10;55.10;;;;;;5072559;28;20020;-55
2021/04/11 12:33:12;;;;;;;9.07;4.50;;;20.10;55.20;;;;;;5063079;28;20025;-53
2021/04/11 12:35:43;;;;;;;6.07;3.53;;;20.10;54.90;;;;;;5072317;28;20374;-51
2021/04/11 12:38:12;;;;;;;6.63;4.38;;;20.10;55.30;;;;;;5077045;28;20020;-52
2021/04/11 12:40:50;;;;;;;5.93;4.38;;;20.10;54.90;;;;;;5072654;28;20034;-50
2021/04/11 12:43:42;;;;;;;7.88;4.30;;;20.10;53.80;;;;;;5089960;28;20063;-55
2021/04/11 12:46:32;;;;;;;5.78;4.15;;;20.00;54.70;;;;;;5091048;28;20020;-56
2021/04/11 12:49:17;;;;;;;10.52;4.85;;;20.10;54.90;;;;;;5091267;28;20024;-54
2021/04/11 12:52:12;;;;;;;7.93;3.80;;;20.10;53.70;;;;;;5078979;28;20036;-54
2021/04/11 12:54:57;;;;;;;5.68;3.63;;;20.00;54.60;;;;;;5067777;28;20041;-52
2021/04/11 12:57:31;;;;;;;6.27;3.60;;;20.10;54.50;;;;;;5069524;28;20044;-53
2021/04/11 13:00:22;;;;;;;7.68;4.05;;;20.20;54.60;;;;;;5070779;28;20162;-54
2021/04/11 13:03:09;;;;;;;6.55;3.30;;;20.20;54.20;;;;;;5068420;28;20031;-53
2021/04/11 13:05:38;;;;;;;6.88;3.83;;;20.20;53.70;;;;;;5070374;28;20127;-51
2021/04/11 13:08:03;;;;;;;7.75;3.83;;;20.30;53.90;;;;;;5070695;28;20509;-52
2021/04/11 13:10:44;;;;;;;6.25;3.17;;;20.40;53.70;;;;;;5070218;28;20031;-51
2021/04/11 13:13:42;;;;;;;7.50;3.97;;;20.50;53.50;;;;;;5064662;28;20028;-53
2021/04/11 13:16:25;;;;;;;4.63;2.90;;;20.50;52.10;;;;;;5079382;28;20075;-52
2021/04/11 13:19:00;;;;;;;6.03;3.50;;;20.50;52.90;;;;;;5070578;28;20032;-50
2021/04/11 13:21:38;;;;;;;8.15;3.03;;;20.50;53.20;;;;;;5070476;28;20048;-51
2021/04/11 13:24:10;;;;;;;7.47;3.42;;;20.60;52.40;;;;;;5070738;28;20068;-53
2021/04/11 13:26:53;;;;;;;5.45;2.60;;;20.70;51.50;;;;;;5070259;28;20032;-49
2021/04/11 13:29:26;;;;;;;5.75;2.40;;;20.70;51.20;;;;;;5070366;28;20434;-54
2021/04/11 13:32:16;;;;;;;5.15;2.38;;;20.70;50.80;;;;;;5070276;28;20025;-48
2021/04/11 13:34:45;;;;;;;4.38;2.70;;;20.80;51.40;;;;;;5070487;28;20040;-51
2021/04/11 13:37:15;;;;;;;5.00;2.55;;;20.90;51.40;;;;;;5070372;28;20437;-55
2021/04/11 13:39:43;;;;;;;4.32;2.53;;;21.00;51.60;;;;;;5066912;28;20044;-50